sensor_id;sensor_type;location;lat;lon;timestamp;P1;durP1;ratioP1;P2;durP2;ratioP2
38909;SDS011;24676;51.360;12.354;2023-08-20T00:01:56;4.88;;;3.08;;
38909;SDS011;24676;51.360;12.354;2023-08-20T00:04:45;5.43;;;3.50;;
38909;SDS011;24676;51.360;12.354;2023-08-20T00:07:31;3.80;;;3.10;;
38909;SDS011;24676;51.360;12.354;2023-08-20T00:10:16;8.07;;;4.60;;
38909;SDS011;24676;51.360;12.354;2023-08-20T00:13:01;11.00;;;5.00;;
38909;SDS011;24676;51.360;12.354;2023-08-20T00:15:46;7.32;;;4.07;;
38909;SDS011;24676;51.360;12.354;2023-08-20T00:18:30;6.32;;;4.13;;
38909;SDS011;24676;51.360;12.354;2023-08-20T00:23:59;8.30;;;4.30;;
38909;SDS011;24676;51.360;12.354;2023-08-20T00:26:44;6.50;;;4.25;;
38909;SDS011;24676;51.360;12.354;2023-08-20T00:29:28;5.70;;;4.47;;
38909;SDS011;24676;51.360;12.354;2023-08-20T00:32:14;5.47;;;4.53;;
38909;SDS011;24676;51.360;12.354;2023-08-20T00:34:58;8.25;;;4.75;;
38909;SDS011;24676;51.360;12.354;2023-08-20T00:37:42;8.05;;;4.20;;
38909;SDS011;24676;51.360;12.354;2023-08-20T00:40:28;6.10;;;4.70;;
38909;SDS011;24676;51.360;12.354;2023-08-20T00:43:14;9.45;;;4.82;;
38909;SDS011;24676;51.360;12.354;2023-08-20T00:45:58;9.43;;;4.45;;
38909;SDS011;24676;51.360;12.354;2023-08-20T00:48:43;6.50;;;5.03;;
38909;SDS011;24676;51.360;12.354;2023-08-20T00:51:27;4.82;;;4.35;;
38909;SDS011;24676;51.360;12.354;2023-08-20T00:54:16;6.38;;;5.18;;
38909;SDS011;24676;51.360;12.354;2023-08-20T00:57:01;9.15;;;4.68;;
38909;SDS011;24676;51.360;12.354;2023-08-20T00:59:49;8.43;;;4.50;;
38909;SDS011;24676;51.360;12.354;2023-08-20T01:02:34;6.55;;;5.40;;
38909;SDS011;24676;51.360;12.354;2023-08-20T01:05:19;6.00;;;3.75;;
38909;SDS011;24676;51.360;12.354;2023-08-20T01:08:11;7.00;;;5.05;;
38909;SDS011;24676;51.360;12.354;2023-08-20T01:11:21;9.75;;;5.43;;
38909;SDS011;24676;51.360;12.354;2023-08-20T01:14:16;5.75;;;4.10;;
38909;SDS011;24676;51.360;12.354;2023-08-20T01:17:01;6.32;;;4.80;;
38909;SDS011;24676;51.360;12.354;2023-08-20T01:19:45;7.00;;;4.15;;
38909;SDS011;24676;51.360;12.354;2023-08-20T01:28:46;11.45;;;5.95;;
38909;SDS011;24676;51.360;12.354;2023-08-20T01:31:30;6.90;;;5.22;;
38909;SDS011;24676;51.360;12.354;2023-08-20T01:34:16;6.07;;;4.60;;
38909;SDS011;24676;51.360;12.354;2023-08-20T01:37:00;7.25;;;5.63;;
38909;SDS011;24676;51.360;12.354;2023-08-20T01:39:45;8.20;;;6.03;;
38909;SDS011;24676;51.360;12.354;2023-08-20T01:42:29;13.55;;;6.18;;
38909;SDS011;24676;51.360;12.354;2023-08-20T01:45:13;9.07;;;7.00;;
38909;SDS011;24676;51.360;12.354;2023-08-20T01:47:57;11.65;;;7.65;;
38909;SDS011;24676;51.360;12.354;2023-08-20T01:50:41;10.30;;;7.38;;
38909;SDS011;24676;51.360;12.354;2023-08-20T01:53:26;13.05;;;7.90;;
38909;SDS011;24676;51.360;12.354;2023-08-20T01:56:10;11.60;;;8.13;;
38909;SDS011;24676;51.360;12.354;2023-08-20T01:58:56;12.82;;;8.45;;
38909;SDS011;24676;51.360;12.354;2023-08-20T02:01:40;17.40;;;9.60;;
38909;SDS011;24676;51.360;12.354;2023-08-20T02:04:24;13.45;;;8.93;;
38909;SDS011;24676;51.360;12.354;2023-08-20T02:07:08;13.07;;;9.27;;
38909;SDS011;24676;51.360;12.354;2023-08-20T02:09:52;14.13;;;9.68;;
38909;SDS011;24676;51.360;12.354;2023-08-20T02:12:36;21.02;;;9.80;;
38909;SDS011;24676;51.360;12.354;2023-08-20T02:15:20;14.40;;;10.15;;
38909;SDS011;24676;51.360;12.354;2023-08-20T02:18:05;16.73;;;10.68;;
38909;SDS011;24676;51.360;12.354;2023-08-20T02:20:49;12.20;;;8.30;;
38909;SDS011;24676;51.360;12.354;2023-08-20T02:23:33;13.88;;;9.48;;
38909;SDS011;24676;51.360;12.354;2023-08-20T02:26:18;14.73;;;10.15;;
38909;SDS011;24676;51.360;12.354;2023-08-20T02:29:02;18.83;;;10.68;;
38909;SDS011;24676;51.360;12.354;2023-08-20T02:31:46;20.13;;;11.85;;
38909;SDS011;24676;51.360;12.354;2023-08-20T02:34:31;13.38;;;9.40;;
38909;SDS011;24676;51.360;12.354;2023-08-20T02:37:15;14.63;;;9.00;;
38909;SDS011;24676;51.360;12.354;2023-08-20T02:39:59;16.83;;;11.20;;
38909;SDS011;24676;51.360;12.354;2023-08-20T02:42:43;14.40;;;9.27;;
38909;SDS011;24676;51.360;12.354;2023-08-20T02:45:27;11.80;;;9.15;;
38909;SDS011;24676;51.360;12.354;2023-08-20T02:48:11;19.08;;;10.27;;
38909;SDS011;24676;51.360;12.354;2023-08-20T02:50:57;17.27;;;10.00;;
38909;SDS011;24676;51.360;12.354;2023-08-20T02:53:41;12.32;;;9.27;;
38909;SDS011;24676;51.360;12.354;2023-08-20T02:56:25;22.40;;;10.52;;
38909;SDS011;24676;51.360;12.354;2023-08-20T02:59:09;17.98;;;9.70;;
38909;SDS011;24676;51.360;12.354;2023-08-20T03:01:53;12.02;;;8.95;;
38909;SDS011;24676;51.360;12.354;2023-08-20T03:04:37;18.67;;;9.70;;
38909;SDS011;24676;51.360;12.354;2023-08-20T03:07:22;12.13;;;9.93;;
38909;SDS011;24676;51.360;12.354;2023-08-20T03:10:06;14.52;;;9.75;;
38909;SDS011;24676;51.360;12.354;2023-08-20T03:12:51;18.75;;;12.45;;
38909;SDS011;24676;51.360;12.354;2023-08-20T03:15:36;20.98;;;10.45;;
38909;SDS011;24676;51.360;12.354;2023-08-20T03:18:20;17.77;;;10.60;;
38909;SDS011;24676;51.360;12.354;2023-08-20T03:21:04;11.50;;;9.07;;
38909;SDS011;24676;51.360;12.354;2023-08-20T03:23:49;13.40;;;9.13;;
38909;SDS011;24676;51.360;12.354;2023-08-20T03:26:33;15.73;;;9.57;;
38909;SDS011;24676;51.360;12.354;2023-08-20T03:29:17;13.38;;;9.23;;
38909;SDS011;24676;51.360;12.354;2023-08-20T03:32:01;17.40;;;10.38;;
38909;SDS011;24676;51.360;12.354;2023-08-20T03:34:46;12.75;;;10.05;;
38909;SDS011;24676;51.360;12.354;2023-08-20T03:37:30;12.90;;;8.35;;
38909;SDS011;24676;51.360;12.354;2023-08-20T03:40:14;16.70;;;8.88;;
38909;SDS011;24676;51.360;12.354;2023-08-20T03:42:59;12.52;;;8.38;;
38909;SDS011;24676;51.360;12.354;2023-08-20T03:45:43;15.18;;;10.27;;
38909;SDS011;24676;51.360;12.354;2023-08-20T03:48:28;13.85;;;11.07;;
38909;SDS011;24676;51.360;12.354;2023-08-20T03:51:12;17.15;;;9.88;;
38909;SDS011;24676;51.360;12.354;2023-08-20T03:53:57;14.13;;;10.95;;
38909;SDS011;24676;51.360;12.354;2023-08-20T03:56:41;14.40;;;9.45;;
38909;SDS011;24676;51.360;12.354;2023-08-20T03:59:25;14.45;;;9.70;;
38909;SDS011;24676;51.360;12.354;2023-08-20T04:02:10;15.93;;;10.95;;
38909;SDS011;24676;51.360;12.354;2023-08-20T04:04:57;19.98;;;10.80;;
38909;SDS011;24676;51.360;12.354;2023-08-20T04:07:41;16.92;;;12.30;;
38909;SDS011;24676;51.360;12.354;2023-08-20T04:10:25;17.17;;;11.88;;
38909;SDS011;24676;51.360;12.354;2023-08-20T04:13:10;17.25;;;10.10;;
38909;SDS011;24676;51.360;12.354;2023-08-20T04:15:55;21.50;;;13.38;;
38909;SDS011;24676;51.360;12.354;2023-08-20T04:18:39;17.48;;;13.57;;
38909;SDS011;24676;51.360;12.354;2023-08-20T04:21:23;20.30;;;12.43;;
38909;SDS011;24676;51.360;12.354;2023-08-20T04:24:08;20.63;;;13.23;;
38909;SDS011;24676;51.360;12.354;2023-08-20T04:26:52;25.48;;;14.55;;
38909;SDS011;24676;51.360;12.354;2023-08-20T04:29:36;21.77;;;13.70;;
38909;SDS011;24676;51.360;12.354;2023-08-20T04:32:20;23.63;;;15.02;;
38909;SDS011;24676;51.360;12.354;2023-08-20T04:35:04;23.65;;;16.15;;
38909;SDS011;24676;51.360;12.354;2023-08-20T04:37:49;28.90;;;16.65;;
38909;SDS011;24676;51.360;12.354;2023-08-20T04:40:33;28.48;;;16.52;;
38909;SDS011;24676;51.360;12.354;2023-08-20T04:43:17;26.88;;;15.18;;
38909;SDS011;24676;51.360;12.354;2023-08-20T04:46:01;25.05;;;15.75;;
38909;SDS011;24676;51.360;12.354;2023-08-20T04:48:45;29.35;;;15.05;;
38909;SDS011;24676;51.360;12.354;2023-08-20T04:51:30;23.67;;;15.82;;
38909;SDS011;24676;51.360;12.354;2023-08-20T04:54:14;21.75;;;14.25;;
38909;SDS011;24676;51.360;12.354;2023-08-20T04:56:58;24.52;;;15.93;;
38909;SDS011;24676;51.360;12.354;2023-08-20T04:59:42;29.33;;;15.85;;
38909;SDS011;24676;51.360;12.354;2023-08-20T05:02:29;26.77;;;15.50;;
38909;SDS011;24676;51.360;12.354;2023-08-20T05:05:13;20.60;;;14.02;;
38909;SDS011;24676;51.360;12.354;2023-08-20T05:07:57;22.08;;;15.07;;
38909;SDS011;24676;51.360;12.354;2023-08-20T05:10:41;23.25;;;14.80;;
38909;SDS011;24676;51.360;12.354;2023-08-20T05:13:25;22.48;;;14.13;;
38909;SDS011;24676;51.360;12.354;2023-08-20T05:16:09;26.75;;;15.63;;
38909;SDS011;24676;51.360;12.354;2023-08-20T05:18:53;25.38;;;15.10;;
38909;SDS011;24676;51.360;12.354;2023-08-20T05:21:38;27.25;;;15.27;;
38909;SDS011;24676;51.360;12.354;2023-08-20T05:24:22;20.33;;;14.75;;
38909;SDS011;24676;51.360;12.354;2023-08-20T05:27:10;18.75;;;14.30;;
38909;SDS011;24676;51.360;12.354;2023-08-20T05:30:00;20.67;;;13.32;;
38909;SDS011;24676;51.360;12.354;2023-08-20T05:32:44;20.38;;;13.20;;
38909;SDS011;24676;51.360;12.354;2023-08-20T05:35:29;18.65;;;12.73;;
38909;SDS011;24676;51.360;12.354;2023-08-20T05:38:13;23.25;;;14.27;;
38909;SDS011;24676;51.360;12.354;2023-08-20T05:40:57;20.63;;;15.02;;
38909;SDS011;24676;51.360;12.354;2023-08-20T05:43:41;18.92;;;12.43;;
38909;SDS011;24676;51.360;12.354;2023-08-20T05:46:25;16.95;;;10.68;;
38909;SDS011;24676;51.360;12.354;2023-08-20T05:49:09;21.30;;;12.25;;
38909;SDS011;24676;51.360;12.354;2023-08-20T05:51:53;14.82;;;11.68;;
38909;SDS011;24676;51.360;12.354;2023-08-20T05:54:37;19.60;;;13.20;;
38909;SDS011;24676;51.360;12.354;2023-08-20T05:57:21;16.35;;;12.02;;
38909;SDS011;24676;51.360;12.354;2023-08-20T06:00:06;16.50;;;12.40;;
38909;SDS011;24676;51.360;12.354;2023-08-20T06:02:51;17.13;;;10.85;;
38909;SDS011;24676;51.360;12.354;2023-08-20T06:05:35;18.25;;;12.05;;
38909;SDS011;24676;51.360;12.354;2023-08-20T06:08:19;15.25;;;10.57;;
38909;SDS011;24676;51.360;12.354;2023-08-20T06:11:03;20.73;;;11.80;;
38909;SDS011;24676;51.360;12.354;2023-08-20T06:13:47;17.23;;;11.18;;
38909;SDS011;24676;51.360;12.354;2023-08-20T06:16:31;18.95;;;12.90;;
38909;SDS011;24676;51.360;12.354;2023-08-20T06:19:15;21.83;;;13.07;;
38909;SDS011;24676;51.360;12.354;2023-08-20T06:21:59;19.17;;;11.65;;
38909;SDS011;24676;51.360;12.354;2023-08-20T06:24:44;18.30;;;11.77;;
38909;SDS011;24676;51.360;12.354;2023-08-20T06:27:28;17.23;;;8.30;;
38909;SDS011;24676;51.360;12.354;2023-08-20T06:30:12;15.85;;;11.63;;
38909;SDS011;24676;51.360;12.354;2023-08-20T06:32:56;16.50;;;12.20;;
38909;SDS011;24676;51.360;12.354;2023-08-20T06:35:40;18.80;;;12.55;;
38909;SDS011;24676;51.360;12.354;2023-08-20T06:38:25;18.08;;;11.32;;
38909;SDS011;24676;51.360;12.354;2023-08-20T06:41:09;16.15;;;10.15;;
38909;SDS011;24676;51.360;12.354;2023-08-20T06:43:53;15.25;;;9.55;;
38909;SDS011;24676;51.360;12.354;2023-08-20T06:46:38;17.92;;;10.20;;
38909;SDS011;24676;51.360;12.354;2023-08-20T06:49:22;10.05;;;8.00;;
38909;SDS011;24676;51.360;12.354;2023-08-20T06:52:06;15.07;;;9.43;;
38909;SDS011;24676;51.360;12.354;2023-08-20T06:54:50;13.13;;;8.98;;
38909;SDS011;24676;51.360;12.354;2023-08-20T06:57:34;11.85;;;9.20;;
38909;SDS011;24676;51.360;12.354;2023-08-20T07:00:18;15.77;;;10.82;;
38909;SDS011;24676;51.360;12.354;2023-08-20T07:03:03;16.45;;;10.27;;
38909;SDS011;24676;51.360;12.354;2023-08-20T07:05:47;13.98;;;9.98;;
38909;SDS011;24676;51.360;12.354;2023-08-20T07:08:31;16.00;;;10.77;;
38909;SDS011;24676;51.360;12.354;2023-08-20T07:11:16;13.02;;;9.23;;
38909;SDS011;24676;51.360;12.354;2023-08-20T07:14:00;14.95;;;9.80;;
38909;SDS011;24676;51.360;12.354;2023-08-20T07:16:45;14.07;;;9.68;;
38909;SDS011;24676;51.360;12.354;2023-08-20T07:19:29;11.48;;;8.68;;
38909;SDS011;24676;51.360;12.354;2023-08-20T07:22:14;11.10;;;7.97;;
38909;SDS011;24676;51.360;12.354;2023-08-20T07:24:58;14.80;;;9.63;;
38909;SDS011;24676;51.360;12.354;2023-08-20T07:27:42;10.35;;;7.43;;
38909;SDS011;24676;51.360;12.354;2023-08-20T07:30:26;9.60;;;7.30;;
38909;SDS011;24676;51.360;12.354;2023-08-20T07:33:11;14.25;;;9.30;;
38909;SDS011;24676;51.360;12.354;2023-08-20T07:35:55;11.52;;;8.00;;
38909;SDS011;24676;51.360;12.354;2023-08-20T07:38:39;8.55;;;6.78;;
38909;SDS011;24676;51.360;12.354;2023-08-20T07:41:26;8.68;;;6.32;;
38909;SDS011;24676;51.360;12.354;2023-08-20T07:44:10;6.50;;;4.95;;
38909;SDS011;24676;51.360;12.354;2023-08-20T07:46:54;4.90;;;4.50;;
38909;SDS011;24676;51.360;12.354;2023-08-20T07:49:38;5.35;;;4.55;;
38909;SDS011;24676;51.360;12.354;2023-08-20T08:00:36;8.98;;;5.63;;
38909;SDS011;24676;51.360;12.354;2023-08-20T08:03:20;4.10;;;3.67;;
38909;SDS011;24676;51.360;12.354;2023-08-20T08:06:04;9.05;;;4.18;;
38909;SDS011;24676;51.360;12.354;2023-08-20T08:08:48;7.53;;;4.93;;
38909;SDS011;24676;51.360;12.354;2023-08-20T08:11:32;9.32;;;3.70;;
38909;SDS011;24676;51.360;12.354;2023-08-20T08:14:16;5.63;;;4.75;;
38909;SDS011;24676;51.360;12.354;2023-08-20T08:17:01;9.38;;;5.35;;
38909;SDS011;24676;51.360;12.354;2023-08-20T08:19:45;7.22;;;4.55;;
38909;SDS011;24676;51.360;12.354;2023-08-20T08:22:30;5.72;;;4.88;;
38909;SDS011;24676;51.360;12.354;2023-08-20T08:25:14;5.57;;;4.50;;
38909;SDS011;24676;51.360;12.354;2023-08-20T08:27:58;5.60;;;4.88;;
38909;SDS011;24676;51.360;12.354;2023-08-20T08:30:42;9.13;;;5.63;;
38909;SDS011;24676;51.360;12.354;2023-08-20T08:33:26;10.82;;;5.43;;
38909;SDS011;24676;51.360;12.354;2023-08-20T08:36:10;6.10;;;4.85;;
38909;SDS011;24676;51.360;12.354;2023-08-20T08:38:54;6.60;;;5.17;;
38909;SDS011;24676;51.360;12.354;2023-08-20T09:03:36;7.43;;;5.40;;
38909;SDS011;24676;51.360;12.354;2023-08-20T09:06:20;6.93;;;5.70;;
38909;SDS011;24676;51.360;12.354;2023-08-20T09:17:20;5.70;;;4.60;;
38909;SDS011;24676;51.360;12.354;2023-08-20T09:39:19;5.70;;;4.00;;
38909;SDS011;24676;51.360;12.354;2023-08-20T09:42:03;5.75;;;4.95;;
38909;SDS011;24676;51.360;12.354;2023-08-20T09:44:49;5.43;;;4.78;;
38909;SDS011;24676;51.360;12.354;2023-08-20T09:47:36;6.72;;;5.40;;
38909;SDS011;24676;51.360;12.354;2023-08-20T09:58:48;5.20;;;4.32;;
38909;SDS011;24676;51.360;12.354;2023-08-20T10:01:33;8.20;;;4.95;;
38909;SDS011;24676;51.360;12.354;2023-08-20T10:04:19;4.45;;;4.05;;
38909;SDS011;24676;51.360;12.354;2023-08-20T10:18:04;6.10;;;4.17;;
38909;SDS011;24676;51.360;12.354;2023-08-20T10:20:51;4.95;;;4.35;;
38909;SDS011;24676;51.360;12.354;2023-08-20T10:46:32;3.95;;;3.55;;
38909;SDS011;24676;51.360;12.354;2023-08-20T10:49:20;4.20;;;3.80;;
38909;SDS011;24676;51.360;12.354;2023-08-20T10:52:05;4.57;;;3.83;;
38909;SDS011;24676;51.360;12.354;2023-08-20T10:54:50;4.45;;;4.05;;
38909;SDS011;24676;51.360;12.354;2023-08-20T10:57:35;4.65;;;3.80;;
38909;SDS011;24676;51.360;12.354;2023-08-20T11:00:20;5.32;;;4.82;;
38909;SDS011;24676;51.360;12.354;2023-08-20T11:05:49;4.07;;;3.70;;
38909;SDS011;24676;51.360;12.354;2023-08-20T11:08:34;5.43;;;4.35;;
38909;SDS011;24676;51.360;12.354;2023-08-20T11:33:16;3.97;;;3.58;;
38909;SDS011;24676;51.360;12.354;2023-08-20T11:36:01;5.00;;;4.20;;
38909;SDS011;24676;51.360;12.354;2023-08-20T11:44:22;5.93;;;4.90;;
38909;SDS011;24676;51.360;12.354;2023-08-20T12:03:43;4.65;;;3.63;;
38909;SDS011;24676;51.360;12.354;2023-08-20T12:53:13;4.78;;;4.20;;
38909;SDS011;24676;51.360;12.354;2023-08-20T12:55:57;6.43;;;3.35;;
38909;SDS011;24676;51.360;12.354;2023-08-20T12:58:42;4.18;;;3.88;;
38909;SDS011;24676;51.360;12.354;2023-08-20T13:01:26;5.90;;;3.25;;
38909;SDS011;24676;51.360;12.354;2023-08-20T13:04:11;4.45;;;3.42;;
38909;SDS011;24676;51.360;12.354;2023-08-20T13:06:55;5.60;;;5.00;;
38909;SDS011;24676;51.360;12.354;2023-08-20T13:09:40;4.22;;;3.80;;
38909;SDS011;24676;51.360;12.354;2023-08-20T13:12:24;4.50;;;3.97;;
38909;SDS011;24676;51.360;12.354;2023-08-20T13:15:11;4.15;;;3.75;;
38909;SDS011;24676;51.360;12.354;2023-08-20T13:17:55;9.30;;;4.43;;
38909;SDS011;24676;51.360;12.354;2023-08-20T13:20:40;5.95;;;4.93;;
38909;SDS011;24676;51.360;12.354;2023-08-20T13:23:26;6.60;;;4.80;;
38909;SDS011;24676;51.360;12.354;2023-08-20T13:26:10;5.07;;;3.88;;
38909;SDS011;24676;51.360;12.354;2023-08-20T18:27:52;5.90;;;3.88;;
38909;SDS011;24676;51.360;12.354;2023-08-20T18:30:36;5.47;;;3.70;;
38909;SDS011;24676;51.360;12.354;2023-08-20T18:33:21;6.78;;;4.55;;
38909;SDS011;24676;51.360;12.354;2023-08-20T18:36:05;6.38;;;5.47;;
38909;SDS011;24676;51.360;12.354;2023-08-20T18:38:50;13.13;;;5.00;;
38909;SDS011;24676;51.360;12.354;2023-08-20T18:41:34;7.38;;;4.43;;
38909;SDS011;24676;51.360;12.354;2023-08-20T18:44:19;6.53;;;4.45;;
38909;SDS011;24676;51.360;12.354;2023-08-20T18:47:03;6.97;;;5.20;;
38909;SDS011;24676;51.360;12.354;2023-08-20T18:49:47;8.63;;;4.88;;
38909;SDS011;24676;51.360;12.354;2023-08-20T18:52:31;9.68;;;5.63;;
38909;SDS011;24676;51.360;12.354;2023-08-20T18:55:16;6.22;;;5.60;;
38909;SDS011;24676;51.360;12.354;2023-08-20T18:58:00;6.50;;;5.50;;
38909;SDS011;24676;51.360;12.354;2023-08-20T19:00:44;7.30;;;6.43;;
38909;SDS011;24676;51.360;12.354;2023-08-20T19:03:28;9.60;;;6.25;;
38909;SDS011;24676;51.360;12.354;2023-08-20T19:06:14;8.45;;;6.35;;
38909;SDS011;24676;51.360;12.354;2023-08-20T19:08:58;10.02;;;5.53;;
38909;SDS011;24676;51.360;12.354;2023-08-20T19:11:43;92.78;;;33.25;;
38909;SDS011;24676;51.360;12.354;2023-08-20T19:14:27;9.88;;;6.13;;
38909;SDS011;24676;51.360;12.354;2023-08-20T19:17:12;8.05;;;6.43;;
38909;SDS011;24676;51.360;12.354;2023-08-20T19:19:56;10.68;;;7.03;;
38909;SDS011;24676;51.360;12.354;2023-08-20T19:22:40;9.18;;;6.07;;
38909;SDS011;24676;51.360;12.354;2023-08-20T19:25:25;8.00;;;6.10;;
38909;SDS011;24676;51.360;12.354;2023-08-20T19:28:09;10.13;;;6.85;;
38909;SDS011;24676;51.360;12.354;2023-08-20T19:30:54;13.70;;;7.35;;
38909;SDS011;24676;51.360;12.354;2023-08-20T19:33:39;11.32;;;7.35;;
38909;SDS011;24676;51.360;12.354;2023-08-20T19:36:23;11.52;;;6.80;;
38909;SDS011;24676;51.360;12.354;2023-08-20T19:39:07;8.30;;;6.60;;
38909;SDS011;24676;51.360;12.354;2023-08-20T19:41:52;8.38;;;6.82;;
38909;SDS011;24676;51.360;12.354;2023-08-20T19:44:36;7.53;;;6.60;;
38909;SDS011;24676;51.360;12.354;2023-08-20T19:47:20;8.82;;;6.80;;
38909;SDS011;24676;51.360;12.354;2023-08-20T19:50:04;10.27;;;6.40;;
38909;SDS011;24676;51.360;12.354;2023-08-20T19:52:49;7.97;;;6.55;;
38909;SDS011;24676;51.360;12.354;2023-08-20T19:55:34;7.57;;;6.47;;
38909;SDS011;24676;51.360;12.354;2023-08-20T19:58:18;10.30;;;6.55;;
38909;SDS011;24676;51.360;12.354;2023-08-20T20:01:05;8.45;;;6.45;;
38909;SDS011;24676;51.360;12.354;2023-08-20T20:03:50;11.35;;;7.25;;
38909;SDS011;24676;51.360;12.354;2023-08-20T20:06:37;11.35;;;7.00;;
38909;SDS011;24676;51.360;12.354;2023-08-20T20:09:21;9.02;;;7.20;;
38909;SDS011;24676;51.360;12.354;2023-08-20T20:12:05;7.88;;;6.78;;
38909;SDS011;24676;51.360;12.354;2023-08-20T20:14:49;8.05;;;6.88;;
38909;SDS011;24676;51.360;12.354;2023-08-20T20:17:34;7.60;;;6.22;;
38909;SDS011;24676;51.360;12.354;2023-08-20T20:20:20;9.50;;;7.15;;
38909;SDS011;24676;51.360;12.354;2023-08-20T20:23:05;8.48;;;6.43;;
38909;SDS011;24676;51.360;12.354;2023-08-20T20:25:49;8.20;;;5.85;;
38909;SDS011;24676;51.360;12.354;2023-08-20T20:28:33;8.95;;;6.63;;
38909;SDS011;24676;51.360;12.354;2023-08-20T20:31:19;7.97;;;6.43;;
38909;SDS011;24676;51.360;12.354;2023-08-20T20:34:03;9.63;;;6.28;;
38909;SDS011;24676;51.360;12.354;2023-08-20T20:36:47;8.98;;;6.03;;
38909;SDS011;24676;51.360;12.354;2023-08-20T20:39:32;7.22;;;5.88;;
38909;SDS011;24676;51.360;12.354;2023-08-20T20:42:17;6.32;;;5.50;;
38909;SDS011;24676;51.360;12.354;2023-08-20T20:45:02;6.95;;;5.90;;
38909;SDS011;24676;51.360;12.354;2023-08-20T20:47:46;9.15;;;6.78;;
38909;SDS011;24676;51.360;12.354;2023-08-20T20:50:30;9.68;;;6.28;;
38909;SDS011;24676;51.360;12.354;2023-08-20T20:53:15;6.90;;;4.95;;
38909;SDS011;24676;51.360;12.354;2023-08-20T20:55:59;8.27;;;5.05;;
38909;SDS011;24676;51.360;12.354;2023-08-20T20:58:43;6.32;;;3.78;;
38909;SDS011;24676;51.360;12.354;2023-08-20T21:01:27;8.00;;;5.10;;
38909;SDS011;24676;51.360;12.354;2023-08-20T21:04:12;10.90;;;5.72;;
38909;SDS011;24676;51.360;12.354;2023-08-20T21:06:56;6.82;;;5.60;;
38909;SDS011;24676;51.360;12.354;2023-08-20T21:09:43;6.65;;;4.68;;
38909;SDS011;24676;51.360;12.354;2023-08-20T21:12:28;7.68;;;4.75;;
38909;SDS011;24676;51.360;12.354;2023-08-20T21:15:12;6.93;;;4.07;;
38909;SDS011;24676;51.360;12.354;2023-08-20T21:17:56;4.72;;;3.20;;
38909;SDS011;24676;51.360;12.354;2023-08-20T21:20:40;6.30;;;3.10;;
38909;SDS011;24676;51.360;12.354;2023-08-20T21:23:24;5.72;;;3.38;;
38909;SDS011;24676;51.360;12.354;2023-08-20T21:26:09;4.60;;;3.40;;
38909;SDS011;24676;51.360;12.354;2023-08-20T21:28:54;8.77;;;3.65;;
38909;SDS011;24676;51.360;12.354;2023-08-20T21:31:38;3.40;;;2.83;;
38909;SDS011;24676;51.360;12.354;2023-08-20T21:34:22;4.50;;;3.58;;
38909;SDS011;24676;51.360;12.354;2023-08-20T21:37:06;4.85;;;3.55;;
38909;SDS011;24676;51.360;12.354;2023-08-20T21:39:51;5.05;;;3.55;;
38909;SDS011;24676;51.360;12.354;2023-08-20T21:42:35;6.28;;;3.80;;
38909;SDS011;24676;51.360;12.354;2023-08-20T21:45:20;6.38;;;4.25;;
38909;SDS011;24676;51.360;12.354;2023-08-20T21:48:04;3.15;;;2.60;;
38909;SDS011;24676;51.360;12.354;2023-08-20T21:50:49;5.40;;;2.83;;
38909;SDS011;24676;51.360;12.354;2023-08-20T21:53:33;5.28;;;2.58;;
38909;SDS011;24676;51.360;12.354;2023-08-20T21:56:17;8.45;;;4.32;;
38909;SDS011;24676;51.360;12.354;2023-08-20T21:59:02;7.78;;;4.20;;
38909;SDS011;24676;51.360;12.354;2023-08-20T22:01:46;3.22;;;2.92;;
38909;SDS011;24676;51.360;12.354;2023-08-20T22:04:31;3.33;;;2.53;;
38909;SDS011;24676;51.360;12.354;2023-08-20T22:07:15;8.80;;;3.00;;
38909;SDS011;24676;51.360;12.354;2023-08-20T22:09:59;6.88;;;3.17;;
38909;SDS011;24676;51.360;12.354;2023-08-20T22:12:44;3.65;;;2.60;;
38909;SDS011;24676;51.360;12.354;2023-08-20T22:15:29;3.72;;;3.13;;
38909;SDS011;24676;51.360;12.354;2023-08-20T22:18:13;4.97;;;3.17;;
38909;SDS011;24676;51.360;12.354;2023-08-20T22:20:57;5.07;;;2.60;;
38909;SDS011;24676;51.360;12.354;2023-08-20T22:23:41;5.32;;;3.20;;
38909;SDS011;24676;51.360;12.354;2023-08-20T22:26:26;6.07;;;3.25;;
38909;SDS011;24676;51.360;12.354;2023-08-20T22:29:10;3.97;;;2.90;;
38909;SDS011;24676;51.360;12.354;2023-08-20T22:31:54;5.43;;;3.35;;
38909;SDS011;24676;51.360;12.354;2023-08-20T22:34:38;5.38;;;2.65;;
38909;SDS011;24676;51.360;12.354;2023-08-20T22:37:22;6.75;;;3.00;;
38909;SDS011;24676;51.360;12.354;2023-08-20T22:40:09;4.10;;;3.28;;
38909;SDS011;24676;51.360;12.354;2023-08-20T22:42:54;3.15;;;2.85;;
38909;SDS011;24676;51.360;12.354;2023-08-20T22:45:38;4.22;;;3.83;;
38909;SDS011;24676;51.360;12.354;2023-08-20T22:48:22;3.58;;;3.03;;
38909;SDS011;24676;51.360;12.354;2023-08-20T22:51:06;3.33;;;2.78;;
38909;SDS011;24676;51.360;12.354;2023-08-20T22:53:52;3.90;;;3.47;;
38909;SDS011;24676;51.360;12.354;2023-08-20T22:56:37;5.57;;;3.80;;
38909;SDS011;24676;51.360;12.354;2023-08-20T22:59:20;6.15;;;4.85;;
38909;SDS011;24676;51.360;12.354;2023-08-20T23:02:04;5.07;;;3.35;;
38909;SDS011;24676;51.360;12.354;2023-08-20T23:04:48;4.07;;;3.58;;
38909;SDS011;24676;51.360;12.354;2023-08-20T23:07:32;3.60;;;2.90;;
38909;SDS011;24676;51.360;12.354;2023-08-20T23:10:17;3.30;;;3.00;;
38909;SDS011;24676;51.360;12.354;2023-08-20T23:13:01;3.50;;;3.20;;
38909;SDS011;24676;51.360;12.354;2023-08-20T23:15:46;4.18;;;2.97;;
38909;SDS011;24676;51.360;12.354;2023-08-20T23:18:30;4.53;;;3.72;;
38909;SDS011;24676;51.360;12.354;2023-08-20T23:21:14;6.22;;;3.95;;
38909;SDS011;24676;51.360;12.354;2023-08-20T23:23:59;8.30;;;3.45;;
38909;SDS011;24676;51.360;12.354;2023-08-20T23:26:43;3.28;;;2.92;;
38909;SDS011;24676;51.360;12.354;2023-08-20T23:29:27;5.50;;;3.55;;
38909;SDS011;24676;51.360;12.354;2023-08-20T23:32:13;2.70;;;2.42;;
38909;SDS011;24676;51.360;12.354;2023-08-20T23:34:57;4.75;;;3.83;;
38909;SDS011;24676;51.360;12.354;2023-08-20T23:37:41;6.82;;;3.35;;
38909;SDS011;24676;51.360;12.354;2023-08-20T23:40:25;7.18;;;3.20;;
38909;SDS011;24676;51.360;12.354;2023-08-20T23:43:10;3.38;;;3.08;;
38909;SDS011;24676;51.360;12.354;2023-08-20T23:45:54;5.30;;;3.03;;
38909;SDS011;24676;51.360;12.354;2023-08-20T23:48:38;4.63;;;2.88;;
38909;SDS011;24676;51.360;12.354;2023-08-20T23:51:22;4.65;;;3.25;;
38909;SDS011;24676;51.360;12.354;2023-08-20T23:54:06;2.72;;;2.53;;
38909;SDS011;24676;51.360;12.354;2023-08-20T23:56:50;3.60;;;2.70;;
38909;SDS011;24676;51.360;12.354;2023-08-20T23:59:34;6.20;;;4.57;;
